Welsh Run, Pennsylvania
Current Conditions -  °F | °C
As of 6:53 PM on Friday 24 Oct 2014 (Local Time) from KHGR Reporting Station
Clear Clear  
Wind Chill: 57°   Ceiling: Unl
Heat Index: 57°   Visibility: 10mi
Dew Point: 35°   Wind: 3mph
Humidity: 44%   Direction: 330°NNW
Pressure: 29.94"   Gusts: NA
Location:  39.7874°N, 77.754°W
Report Text: KHGR 242253Z AUTO 33003KT 10SM CLR 14/02 A2994 RMK AO2 SLP149 T01390017
Loading
Personal Weather Stations






























Interactive Weather Map
Tropical Storm Tracking
New forecast layout! Learn more

10-Day Weather Forecast

Advertisements
Track Severe Weather on mobile